Panagia Faneromeni — SW9785 — position and weather

sailwx.info

Track history (hours):
 
Tides and Currents Weather Stations Pressure Air Temp Water Temp Dewpoint Dewpoint Depression Visibility Wind Speed Wind Dir Waves Ship Positions

Panagia Faneromeni

Last reported at 2014-Sep-21 20:16 UTC. Time now 2014-Sep-22 00:18 UTC.
Position N 36°47' E 024°35'.

Length 33 m; draft 2 m.

Type: Ship. MMSI: 237071900.

Date/timePositionNaut miles runAvg speedWind from/ knotsBaromVisibWave heightAir tempDewpointWater temp
2014-Sep-21 20:16N 36°47' E 024°35'0 0.0
2014-Sep-21 16:16N 36°47' E 024°35'0 0.0
2014-Sep-21 12:27N 36°47' E 024°35'0 0.0
2014-Sep-21 09:33N 36°47' E 024°35'1 0.9
2014-Sep-21 08:32N 36°46' E 024°34'1 0.9
2014-Sep-21 07:26N 36°47' E 024°35'0 0.0
2014-Sep-20 21:05N 36°47' E 024°35'1 0.2
2014-Sep-20 15:12N 36°46' E 024°34'1 0.2
2014-Sep-20 12:20N 36°46' E 024°34'1 0.3
2014-Sep-20 09:29N 36°47' E 024°35'3 0.1
2014-Sep-19 15:33N 36°46' E 024°32'2 0.3
2014-Sep-19 07:27N 36°47' E 024°35'2 0.1
2014-Sep-18 12:04N 36°46' E 024°32'2 0.5
2014-Sep-18 08:33N 36°46' E 024°34'0 0.0
2014-Sep-17 04:33N 36°46' E 024°34'1 0.4
2014-Sep-17 02:20N 36°47' E 024°35'0 0.0
2014-Sep-17 01:07N 36°47' E 024°35'0 0.0
2014-Sep-17 00:20N 36°47' E 024°35'0 0.0
2014-Sep-16 23:31N 36°47' E 024°35'0 0.0
2014-Sep-16 22:26N 36°47' E 024°35'0 0.0
2014-Sep-16 19:32N 36°47' E 024°35'0 0.0
2014-Sep-16 16:32N 36°47' E 024°35'1 1.0
2014-Sep-16 15:12N 36°46' E 024°34'0 0.1
2014-Sep-16 12:18N 36°46' E 024°34'0 0.0
2014-Sep-16 08:33N 36°46' E 024°34'0 0.3
2014-Sep-16 07:21N 36°47' E 024°35'1 0.6
2014-Sep-16 06:25N 36°47' E 024°35'2 1.2
2014-Sep-16 04:21N 36°46' E 024°32'2 2.5
2014-Sep-16 03:23N 36°47' E 024°35'0 0.0
2014-Sep-16 02:12N 36°47' E 024°35'0 0.0
2014-Sep-16 01:30N 36°47' E 024°35'0 0.0
2014-Sep-16 00:12N 36°47' E 024°35'0 0.0
2014-Sep-15 22:06N 36°47' E 024°35'0 0.0
2014-Sep-15 12:29N 36°47' E 024°35'0 0.0
2014-Sep-15 07:27N 36°47' E 024°35'1 0.3
2014-Sep-15 04:32N 36°46' E 024°34'1 0.8
2014-Sep-15 03:18N 36°47' E 024°35'0 0.0
2014-Sep-14 22:12N 36°47' E 024°35'1 0.1
2014-Sep-14 12:17N 36°46' E 024°34'1 0.3
2014-Sep-14 09:26N 36°47' E 024°35'1 1.0
2014-Sep-14 08:30N 36°46' E 024°34'0 0.1
2014-Sep-14 07:19N 36°46' E 024°34'1 0.8
2014-Sep-14 06:16N 36°47' E 024°35'0 0.0
2014-Sep-14 05:22N 36°47' E 024°35'0 0.0
2014-Sep-14 04:22N 36°47' E 024°35'0 0.0
2014-Sep-14 02:10N 36°47' E 024°35'0 0.0
2014-Sep-13 21:16N 36°47' E 024°35'3 0.5
2014-Sep-13 15:24N 36°46' E 024°32'2 0.6
2014-Sep-13 12:17N 36°46' E 024°34'1 0.0
2014-Sep-12 14:16N 36°47' E 024°35'0 0.0
2014-Sep-12 13:27N 36°47' E 024°35'1 0.8
2014-Sep-12 12:19N 36°46' E 024°34'1 0.3
2014-Sep-12 09:33N 36°47' E 024°35'1 1.3
2014-Sep-12 08:33N 36°46' E 024°34'1 0.8
2014-Sep-12 07:07N 36°46' E 024°32'2 2.2
2014-Sep-12 06:07N 36°47' E 024°35'0 0.0
2014-Sep-12 05:30N 36°47' E 024°35'1 1.1
2014-Sep-12 04:33N 36°46' E 024°34'1 1.0
2014-Sep-12 03:31N 36°47' E 024°35'0 0.0
2014-Sep-12 02:31N 36°47' E 024°35'0 0.0
2014-Sep-12 01:30N 36°47' E 024°35'0 0.0
2014-Sep-12 00:25N 36°47' E 024°35'0 0.0
2014-Sep-11 23:31N 36°47' E 024°35'0 0.0
2014-Sep-11 22:19N 36°47' E 024°35'0 0.0
2014-Sep-11 21:07N 36°47' E 024°35'  
Track history (hours):
 
Tides and Currents Weather Stations Pressure Air Temp Water Temp Dewpoint Dewpoint Depression Visibility Wind Speed Wind Dir Waves Ship Positions

Panagia Faneromeni

Last reported at 2014-Sep-21 20:16 UTC. Time now 2014-Sep-22 00:18 UTC.
Position N 36°47' E 024°35'.

Length 33 m; draft 2 m.

Type: Ship. MMSI: 237071900.

Date/timePositionNaut miles runAvg speedWind from/ knotsBaromVisibWave heightAir tempDewpointWater temp
2014-Sep-21 20:16N 36°47' E 024°35'0 0.0
2014-Sep-21 16:16N 36°47' E 024°35'0 0.0
2014-Sep-21 12:27N 36°47' E 024°35'0 0.0
2014-Sep-21 09:33N 36°47' E 024°35'1 0.9
2014-Sep-21 08:32N 36°46' E 024°34'1 0.9
2014-Sep-21 07:26N 36°47' E 024°35'0 0.0
2014-Sep-20 21:05N 36°47' E 024°35'1 0.2
2014-Sep-20 15:12N 36°46' E 024°34'1 0.2
2014-Sep-20 12:20N 36°46' E 024°34'1 0.3
2014-Sep-20 09:29N 36°47' E 024°35'3 0.1
2014-Sep-19 15:33N 36°46' E 024°32'2 0.3
2014-Sep-19 07:27N 36°47' E 024°35'2 0.1
2014-Sep-18 12:04N 36°46' E 024°32'2 0.5
2014-Sep-18 08:33N 36°46' E 024°34'0 0.0
2014-Sep-17 04:33N 36°46' E 024°34'1 0.4
2014-Sep-17 02:20N 36°47' E 024°35'0 0.0
2014-Sep-17 01:07N 36°47' E 024°35'0 0.0
2014-Sep-17 00:20N 36°47' E 024°35'0 0.0
2014-Sep-16 23:31N 36°47' E 024°35'0 0.0
2014-Sep-16 22:26N 36°47' E 024°35'0 0.0
2014-Sep-16 19:32N 36°47' E 024°35'0 0.0
2014-Sep-16 16:32N 36°47' E 024°35'1 1.0
2014-Sep-16 15:12N 36°46' E 024°34'0 0.1
2014-Sep-16 12:18N 36°46' E 024°34'0 0.0
2014-Sep-16 08:33N 36°46' E 024°34'0 0.3
2014-Sep-16 07:21N 36°47' E 024°35'1 0.6
2014-Sep-16 06:25N 36°47' E 024°35'2 1.2
2014-Sep-16 04:21N 36°46' E 024°32'2 2.5
2014-Sep-16 03:23N 36°47' E 024°35'0 0.0
2014-Sep-16 02:12N 36°47' E 024°35'0 0.0
2014-Sep-16 01:30N 36°47' E 024°35'0 0.0
2014-Sep-16 00:12N 36°47' E 024°35'0 0.0
2014-Sep-15 22:06N 36°47' E 024°35'0 0.0
2014-Sep-15 12:29N 36°47' E 024°35'0 0.0
2014-Sep-15 07:27N 36°47' E 024°35'1 0.3
2014-Sep-15 04:32N 36°46' E 024°34'1 0.8
2014-Sep-15 03:18N 36°47' E 024°35'0 0.0
2014-Sep-14 22:12N 36°47' E 024°35'1 0.1
2014-Sep-14 12:17N 36°46' E 024°34'1 0.3
2014-Sep-14 09:26N 36°47' E 024°35'1 1.0
2014-Sep-14 08:30N 36°46' E 024°34'0 0.1
2014-Sep-14 07:19N 36°46' E 024°34'1 0.8
2014-Sep-14 06:16N 36°47' E 024°35'0 0.0
2014-Sep-14 05:22N 36°47' E 024°35'0 0.0
2014-Sep-14 04:22N 36°47' E 024°35'0 0.0
2014-Sep-14 02:10N 36°47' E 024°35'0 0.0
2014-Sep-13 21:16N 36°47' E 024°35'3 0.5
2014-Sep-13 15:24N 36°46' E 024°32'2 0.6
2014-Sep-13 12:17N 36°46' E 024°34'1 0.0
2014-Sep-12 14:16N 36°47' E 024°35'0 0.0
2014-Sep-12 13:27N 36°47' E 024°35'1 0.8
2014-Sep-12 12:19N 36°46' E 024°34'1 0.3
2014-Sep-12 09:33N 36°47' E 024°35'1 1.3
2014-Sep-12 08:33N 36°46' E 024°34'1 0.8
2014-Sep-12 07:07N 36°46' E 024°32'2 2.2
2014-Sep-12 06:07N 36°47' E 024°35'0 0.0
2014-Sep-12 05:30N 36°47' E 024°35'1 1.1
2014-Sep-12 04:33N 36°46' E 024°34'1 1.0
2014-Sep-12 03:31N 36°47' E 024°35'0 0.0
2014-Sep-12 02:31N 36°47' E 024°35'0 0.0
2014-Sep-12 01:30N 36°47' E 024°35'0 0.0
2014-Sep-12 00:25N 36°47' E 024°35'0 0.0
2014-Sep-11 23:31N 36°47' E 024°35'0 0.0
2014-Sep-11 22:19N 36°47' E 024°35'0 0.0
2014-Sep-11 21:07N 36°47' E 024°35'  

Dump ship's entire track history